Terminal Aerodrome Forecast
Issued by NWS Charleston, WV

Current Version | Previous Version | Text Only | Print | Product List | Glossary Off
Versions: 1 2 3 4 5 6 7 8 9 10 11 12 13 14 15 16 17 18 19 20 21 22

000
FTUS41 KRLX 212326
TAFBKW
TAF
KBKW 212326Z 2200/2224 36008KT P6SM SCT022 OVC090
     FM220400 08004KT P6SM BKN025
     FM220700 12004KT P6SM BKN015
     FM221200 17009G15KT P6SM BKN040
     FM221400 20009G17KT 4SM -SHRA BKN015 OVC050
     FM221700 22010G17KT 2SM -SHRA SCT009 OVC012=

USA.gov is the U.S. government's official web portal to all federal, state and local government web resources and services.